Banquereau: Past 24 Hour Conditions

 

Cartwright Airport

01:00 PM AST 24 November 2014
This table is a summary of hourly weather conditions for the past 24 hours.
Date / Time
(AST)
Wind(knots) Conditions Visibility(km) Pressure(kPa) Air tempC) Relative humidity(%) Dew pointC) Wind Chill
24 November 2014
13:00 SW 12 Partly Cloudy 24 102.0 -5 53 -13 -12
12:00 WSW 11 Sunny 24 101.9 -6 55 -13 -12
11:00 WSW 12 Sunny 24 101.9 -6 56 -14 -14
10:00 WSW 10 Sunny 24 101.9 -7 61 -13 -13
9:00 W 8 gust 17 Sunny 24 101.9 -8 68 -12 -14
8:00 W 14 gust 26 Sunny 24 101.8 -8 74 -11 -16
7:00 W 10 gust 22 Clear 24 101.8 -7 74 -11 -14
6:00 WSW 15 gust 25 Clear 24 101.6 -7 71 -12 -16
5:00 W 15 gust 25 Clear 24 101.5 -7 69 -12 -16
4:00 W 15 gust 25 Clear 24 101.4 -7 69 -12 -16
3:00 W 20 gust 30 Clear 24 101.2 -8 74 -11 -17
2:00 W 15 Clear 24 101.1 -8 68 -13 -17
1:00 W 18 Clear 24 101.0 -8 69 -13 -18
0:00 W 17 Clear 24 100.9 -9 67 -14 -18
23 November 2014
23:00 W 15 Mainly Clear 24 100.9 -9 68 -14 -18
22:00 W 14 Mainly Clear 24 100.9 -9 71 -13 -18
21:00 W 17 gust 27 Mainly Clear 24 100.8 -8 72 -13 -18
20:00 W 17 gust 25 Mostly Cloudy 24 100.6 -8 70 -13 -17
19:00 WNW 16 Mostly Cloudy 24 100.6 -8 68 -13 -17
18:00 W 8 Cloudy 24 100.4 -8 62 -14 -14
17:00 W 10 gust 18 Cloudy 24 100.3 -8 64 -13 -14
16:00 W 10 gust 19 Cloudy 24 100.1 -7 64 -13 -14
15:00 WNW 10 gust 19 Cloudy 24 100.0 -7 57 -14 -13
14:00 W 10 Mostly Cloudy 24 99.8 -7 55 -14 -13
13:00 W 9 gust 16 Mostly Cloudy 24 99.7 -7 53 -15 -13
 
Map of Atlantic - Newfoundland marine weather areas Southwestern Grand Banks - 44138 Banquereau - 44139 Tail of the Bank - 44140 Nickerson Bank - 44251 Northeast Burgeo Bank - 44255 Blanc-Sablon Airport Cap Whittle Chevery Natashquan Airport Heath Point Miscou Island Grand Étang Ingonish Beach North Mountain St.Paul Island J.A. Douglas McCurdy Sydney Airport Charlottetown Airport East Point North Cape Argentia Bonavista Burgeo Cape Race Corner Brook Daniel's Harbour Englee Ferolle Point La Scie Port aux Basques Rocky Harbour Sagona Island St. Anthony Airport St. John's Int'l Airport St. Lawrence Stephenville Airport Twillingate Winterland Wreckhouse Cartwright Airport Mary's Harbour Grates Cove Pool's Island Marticot Island Long Pond Îles de la Madeleine Airport
Legend: buoyBuoy land stationLand Station